sensor_id;sensor_type;location;lat;lon;timestamp;P1;durP1;ratioP1;P2;durP2;ratioP2
20734;SDS011;10528;52.124;5.196;2023-06-19T00:01:07;8.77;;;7.05;;
20734;SDS011;10528;52.124;5.196;2023-06-19T00:03:33;9.35;;;7.10;;
20734;SDS011;10528;52.124;5.196;2023-06-19T00:06:00;9.25;;;7.10;;
20734;SDS011;10528;52.124;5.196;2023-06-19T00:08:27;9.35;;;7.10;;
20734;SDS011;10528;52.124;5.196;2023-06-19T00:10:54;9.40;;;7.18;;
20734;SDS011;10528;52.124;5.196;2023-06-19T00:13:21;8.82;;;6.97;;
20734;SDS011;10528;52.124;5.196;2023-06-19T00:15:48;8.02;;;6.97;;
20734;SDS011;10528;52.124;5.196;2023-06-19T00:18:15;10.40;;;7.47;;
20734;SDS011;10528;52.124;5.196;2023-06-19T00:20:44;8.98;;;7.63;;
20734;SDS011;10528;52.124;5.196;2023-06-19T00:23:12;8.35;;;7.30;;
20734;SDS011;10528;52.124;5.196;2023-06-19T00:25:40;8.75;;;7.57;;
20734;SDS011;10528;52.124;5.196;2023-06-19T00:28:09;11.70;;;7.82;;
20734;SDS011;10528;52.124;5.196;2023-06-19T00:30:37;8.85;;;7.40;;
20734;SDS011;10528;52.124;5.196;2023-06-19T00:33:04;8.68;;;7.22;;
20734;SDS011;10528;52.124;5.196;2023-06-19T00:35:33;9.48;;;7.07;;
20734;SDS011;10528;52.124;5.196;2023-06-19T00:38:00;8.15;;;6.45;;
20734;SDS011;10528;52.124;5.196;2023-06-19T00:40:28;7.28;;;6.22;;
20734;SDS011;10528;52.124;5.196;2023-06-19T00:42:58;8.75;;;6.45;;
20734;SDS011;10528;52.124;5.196;2023-06-19T00:45:26;8.65;;;6.72;;
20734;SDS011;10528;52.124;5.196;2023-06-19T00:47:55;7.90;;;6.75;;
20734;SDS011;10528;52.124;5.196;2023-06-19T00:50:24;7.63;;;6.45;;
20734;SDS011;10528;52.124;5.196;2023-06-19T00:52:55;8.40;;;5.80;;
20734;SDS011;10528;52.124;5.196;2023-06-19T00:55:23;6.90;;;5.70;;
20734;SDS011;10528;52.124;5.196;2023-06-19T00:58:00;7.43;;;4.55;;
20734;SDS011;10528;52.124;5.196;2023-06-19T01:00:27;7.28;;;4.78;;
20734;SDS011;10528;52.124;5.196;2023-06-19T01:02:56;5.97;;;4.07;;
20734;SDS011;10528;52.124;5.196;2023-06-19T01:05:24;6.35;;;4.00;;
20734;SDS011;10528;52.124;5.196;2023-06-19T01:10:40;5.95;;;3.00;;
20734;SDS011;10528;52.124;5.196;2023-06-19T01:15:49;3.28;;;2.30;;
20734;SDS011;10528;52.124;5.196;2023-06-19T01:18:17;5.43;;;2.70;;
20734;SDS011;10528;52.124;5.196;2023-06-19T01:20:45;4.15;;;2.42;;
20734;SDS011;10528;52.124;5.196;2023-06-19T01:23:12;4.60;;;2.50;;
20734;SDS011;10528;52.124;5.196;2023-06-19T01:25:38;4.22;;;2.40;;
20734;SDS011;10528;52.124;5.196;2023-06-19T01:28:06;4.75;;;2.08;;
20734;SDS011;10528;52.124;5.196;2023-06-19T01:30:38;5.65;;;2.80;;
20734;SDS011;10528;52.124;5.196;2023-06-19T01:33:23;3.55;;;2.30;;
20734;SDS011;10528;52.124;5.196;2023-06-19T01:35:55;3.97;;;1.98;;
20734;SDS011;10528;52.124;5.196;2023-06-19T01:38:25;3.22;;;2.22;;
20734;SDS011;10528;52.124;5.196;2023-06-19T01:40:55;4.15;;;2.25;;
20734;SDS011;10528;52.124;5.196;2023-06-19T01:43:25;2.53;;;2.03;;
20734;SDS011;10528;52.124;5.196;2023-06-19T01:45:54;2.22;;;1.63;;
20734;SDS011;10528;52.124;5.196;2023-06-19T01:48:22;2.72;;;1.90;;
20734;SDS011;10528;52.124;5.196;2023-06-19T01:50:49;3.47;;;1.90;;
20734;SDS011;10528;52.124;5.196;2023-06-19T01:53:17;2.42;;;1.75;;
20734;SDS011;10528;52.124;5.196;2023-06-19T01:55:45;5.53;;;1.88;;
20734;SDS011;10528;52.124;5.196;2023-06-19T01:58:12;2.67;;;1.85;;
20734;SDS011;10528;52.124;5.196;2023-06-19T02:00:39;2.80;;;1.70;;
20734;SDS011;10528;52.124;5.196;2023-06-19T02:03:06;4.13;;;2.05;;
20734;SDS011;10528;52.124;5.196;2023-06-19T02:05:33;4.43;;;2.20;;
20734;SDS011;10528;52.124;5.196;2023-06-19T02:08:05;3.30;;;2.25;;
20734;SDS011;10528;52.124;5.196;2023-06-19T02:10:35;3.08;;;1.98;;
20734;SDS011;10528;52.124;5.196;2023-06-19T02:13:02;2.60;;;2.00;;
20734;SDS011;10528;52.124;5.196;2023-06-19T02:15:29;5.55;;;2.40;;
20734;SDS011;10528;52.124;5.196;2023-06-19T02:17:56;3.88;;;2.55;;
20734;SDS011;10528;52.124;5.196;2023-06-19T02:20:24;3.28;;;2.30;;
20734;SDS011;10528;52.124;5.196;2023-06-19T02:22:55;5.05;;;2.33;;
20734;SDS011;10528;52.124;5.196;2023-06-19T02:25:22;3.50;;;2.38;;
20734;SDS011;10528;52.124;5.196;2023-06-19T02:27:49;4.30;;;2.90;;
20734;SDS011;10528;52.124;5.196;2023-06-19T02:30:16;5.00;;;2.90;;
20734;SDS011;10528;52.124;5.196;2023-06-19T02:32:43;3.22;;;2.60;;
20734;SDS011;10528;52.124;5.196;2023-06-19T02:35:10;4.65;;;2.70;;
20734;SDS011;10528;52.124;5.196;2023-06-19T02:37:38;5.18;;;2.70;;
20734;SDS011;10528;52.124;5.196;2023-06-19T02:40:06;4.15;;;2.78;;
20734;SDS011;10528;52.124;5.196;2023-06-19T02:42:35;5.72;;;2.67;;
20734;SDS011;10528;52.124;5.196;2023-06-19T02:45:02;3.92;;;3.00;;
20734;SDS011;10528;52.124;5.196;2023-06-19T02:47:30;4.38;;;3.00;;
20734;SDS011;10528;52.124;5.196;2023-06-19T02:50:00;3.97;;;3.00;;
20734;SDS011;10528;52.124;5.196;2023-06-19T02:52:30;3.88;;;2.85;;
20734;SDS011;10528;52.124;5.196;2023-06-19T02:54:58;6.28;;;3.15;;
20734;SDS011;10528;52.124;5.196;2023-06-19T02:57:25;3.88;;;2.85;;
20734;SDS011;10528;52.124;5.196;2023-06-19T02:59:52;4.25;;;3.00;;
20734;SDS011;10528;52.124;5.196;2023-06-19T03:02:19;4.25;;;2.88;;
20734;SDS011;10528;52.124;5.196;2023-06-19T03:04:46;5.55;;;3.05;;
20734;SDS011;10528;52.124;5.196;2023-06-19T03:07:13;6.55;;;3.75;;
20734;SDS011;10528;52.124;5.196;2023-06-19T03:09:40;6.90;;;3.90;;
20734;SDS011;10528;52.124;5.196;2023-06-19T03:12:08;5.57;;;3.53;;
20734;SDS011;10528;52.124;5.196;2023-06-19T03:14:36;5.10;;;3.25;;
20734;SDS011;10528;52.124;5.196;2023-06-19T03:17:03;6.28;;;3.65;;
20734;SDS011;10528;52.124;5.196;2023-06-19T03:19:31;3.67;;;3.05;;
20734;SDS011;10528;52.124;5.196;2023-06-19T03:21:58;5.25;;;4.30;;
20734;SDS011;10528;52.124;5.196;2023-06-19T03:24:25;5.95;;;4.13;;
20734;SDS011;10528;52.124;5.196;2023-06-19T03:26:57;7.30;;;3.63;;
20734;SDS011;10528;52.124;5.196;2023-06-19T03:29:24;6.03;;;4.70;;
20734;SDS011;10528;52.124;5.196;2023-06-19T03:31:55;7.18;;;3.97;;
20734;SDS011;10528;52.124;5.196;2023-06-19T03:34:26;5.03;;;4.03;;
20734;SDS011;10528;52.124;5.196;2023-06-19T03:36:54;6.20;;;4.75;;
20734;SDS011;10528;52.124;5.196;2023-06-19T03:39:21;6.43;;;4.07;;
20734;SDS011;10528;52.124;5.196;2023-06-19T03:41:48;5.40;;;4.72;;
20734;SDS011;10528;52.124;5.196;2023-06-19T03:44:15;10.38;;;4.90;;
20734;SDS011;10528;52.124;5.196;2023-06-19T03:46:43;7.07;;;4.68;;
20734;SDS011;10528;52.124;5.196;2023-06-19T03:49:11;8.63;;;5.80;;
20734;SDS011;10528;52.124;5.196;2023-06-19T03:51:38;7.95;;;6.38;;
20734;SDS011;10528;52.124;5.196;2023-06-19T03:54:05;10.10;;;7.03;;
20734;SDS011;10528;52.124;5.196;2023-06-19T03:56:32;7.88;;;6.35;;
20734;SDS011;10528;52.124;5.196;2023-06-19T03:58:59;8.23;;;6.20;;
20734;SDS011;10528;52.124;5.196;2023-06-19T04:01:26;10.43;;;7.82;;
20734;SDS011;10528;52.124;5.196;2023-06-19T04:03:53;13.18;;;8.65;;
20734;SDS011;10528;52.124;5.196;2023-06-19T04:06:21;10.65;;;7.93;;
20734;SDS011;10528;52.124;5.196;2023-06-19T04:08:49;7.82;;;6.68;;
20734;SDS011;10528;52.124;5.196;2023-06-19T04:11:15;8.93;;;7.18;;
20734;SDS011;10528;52.124;5.196;2023-06-19T04:13:43;9.30;;;7.38;;
20734;SDS011;10528;52.124;5.196;2023-06-19T04:16:11;9.40;;;7.05;;
20734;SDS011;10528;52.124;5.196;2023-06-19T04:18:41;10.80;;;7.45;;
20734;SDS011;10528;52.124;5.196;2023-06-19T04:21:08;14.23;;;8.00;;
20734;SDS011;10528;52.124;5.196;2023-06-19T04:23:34;10.60;;;7.43;;
20734;SDS011;10528;52.124;5.196;2023-06-19T04:26:01;11.23;;;7.43;;
20734;SDS011;10528;52.124;5.196;2023-06-19T04:28:28;10.90;;;8.73;;
20734;SDS011;10528;52.124;5.196;2023-06-19T04:30:55;10.57;;;7.88;;
20734;SDS011;10528;52.124;5.196;2023-06-19T04:33:27;10.68;;;7.78;;
20734;SDS011;10528;52.124;5.196;2023-06-19T04:35:55;9.73;;;7.15;;
20734;SDS011;10528;52.124;5.196;2023-06-19T04:38:22;10.55;;;8.30;;
20734;SDS011;10528;52.124;5.196;2023-06-19T04:40:52;10.60;;;7.10;;
20734;SDS011;10528;52.124;5.196;2023-06-19T04:43:19;9.68;;;6.97;;
20734;SDS011;10528;52.124;5.196;2023-06-19T04:45:46;8.82;;;6.63;;
20734;SDS011;10528;52.124;5.196;2023-06-19T04:48:13;8.13;;;5.45;;
20734;SDS011;10528;52.124;5.196;2023-06-19T04:50:40;6.47;;;5.30;;
20734;SDS011;10528;52.124;5.196;2023-06-19T04:53:07;11.13;;;4.53;;
20734;SDS011;10528;52.124;5.196;2023-06-19T04:55:34;389.98;;;29.60;;
20734;SDS011;10528;52.124;5.196;2023-06-19T04:58:01;6.57;;;3.10;;
20734;SDS011;10528;52.124;5.196;2023-06-19T05:00:28;5.88;;;2.35;;
20734;SDS011;10528;52.124;5.196;2023-06-19T05:02:55;5.72;;;2.40;;
20734;SDS011;10528;52.124;5.196;2023-06-19T05:05:26;5.07;;;1.83;;
20734;SDS011;10528;52.124;5.196;2023-06-19T05:07:56;4.45;;;1.75;;
20734;SDS011;10528;52.124;5.196;2023-06-19T05:10:23;2.60;;;1.20;;
20734;SDS011;10528;52.124;5.196;2023-06-19T05:12:50;2.63;;;1.27;;
20734;SDS011;10528;52.124;5.196;2023-06-19T05:15:17;2.13;;;1.30;;
20734;SDS011;10528;52.124;5.196;2023-06-19T05:17:44;2.22;;;1.60;;
20734;SDS011;10528;52.124;5.196;2023-06-19T05:20:13;2.50;;;1.33;;
20734;SDS011;10528;52.124;5.196;2023-06-19T05:22:40;2.15;;;1.15;;
20734;SDS011;10528;52.124;5.196;2023-06-19T05:25:07;3.38;;;1.30;;
20734;SDS011;10528;52.124;5.196;2023-06-19T05:27:34;12.80;;;2.10;;
20734;SDS011;10528;52.124;5.196;2023-06-19T05:30:02;2.50;;;1.10;;
20734;SDS011;10528;52.124;5.196;2023-06-19T05:32:30;2.00;;;1.40;;
20734;SDS011;10528;52.124;5.196;2023-06-19T05:34:57;2.35;;;1.55;;
20734;SDS011;10528;52.124;5.196;2023-06-19T05:37:24;3.65;;;2.10;;
20734;SDS011;10528;52.124;5.196;2023-06-19T05:39:51;7.25;;;4.20;;
20734;SDS011;10528;52.124;5.196;2023-06-19T05:42:18;5.80;;;3.20;;
20734;SDS011;10528;52.124;5.196;2023-06-19T05:44:44;4.53;;;2.75;;
20734;SDS011;10528;52.124;5.196;2023-06-19T05:47:11;4.68;;;3.20;;
20734;SDS011;10528;52.124;5.196;2023-06-19T05:49:38;5.32;;;3.45;;
20734;SDS011;10528;52.124;5.196;2023-06-19T05:52:07;5.82;;;3.60;;
20734;SDS011;10528;52.124;5.196;2023-06-19T05:54:34;7.18;;;4.25;;
20734;SDS011;10528;52.124;5.196;2023-06-19T05:57:01;7.57;;;4.00;;
20734;SDS011;10528;52.124;5.196;2023-06-19T05:59:28;8.20;;;4.05;;
20734;SDS011;10528;52.124;5.196;2023-06-19T06:01:55;7.00;;;4.10;;
20734;SDS011;10528;52.124;5.196;2023-06-19T06:04:21;9.38;;;3.95;;
20734;SDS011;10528;52.124;5.196;2023-06-19T06:06:48;5.65;;;3.97;;
20734;SDS011;10528;52.124;5.196;2023-06-19T06:09:15;5.78;;;4.10;;
20734;SDS011;10528;52.124;5.196;2023-06-19T06:11:42;4.70;;;3.83;;
20734;SDS011;10528;52.124;5.196;2023-06-19T06:14:09;5.53;;;4.00;;
20734;SDS011;10528;52.124;5.196;2023-06-19T06:16:38;5.32;;;3.65;;
20734;SDS011;10528;52.124;5.196;2023-06-19T06:19:06;4.70;;;3.72;;
20734;SDS011;10528;52.124;5.196;2023-06-19T06:21:33;7.45;;;4.05;;
20734;SDS011;10528;52.124;5.196;2023-06-19T06:24:01;8.23;;;4.20;;
20734;SDS011;10528;52.124;5.196;2023-06-19T06:26:28;9.00;;;4.70;;
20734;SDS011;10528;52.124;5.196;2023-06-19T06:28:55;6.90;;;5.07;;
20734;SDS011;10528;52.124;5.196;2023-06-19T06:31:22;8.25;;;5.07;;
20734;SDS011;10528;52.124;5.196;2023-06-19T06:33:50;9.55;;;4.97;;
20734;SDS011;10528;52.124;5.196;2023-06-19T06:36:17;8.02;;;5.95;;
20734;SDS011;10528;52.124;5.196;2023-06-19T06:39:00;8.57;;;6.15;;
20734;SDS011;10528;52.124;5.196;2023-06-19T06:41:27;14.00;;;6.25;;
20734;SDS011;10528;52.124;5.196;2023-06-19T06:43:54;10.13;;;6.47;;
20734;SDS011;10528;52.124;5.196;2023-06-19T06:46:21;7.68;;;6.22;;
20734;SDS011;10528;52.124;5.196;2023-06-19T06:48:51;8.55;;;6.75;;
20734;SDS011;10528;52.124;5.196;2023-06-19T06:51:18;12.02;;;7.18;;
20734;SDS011;10528;52.124;5.196;2023-06-19T06:53:45;10.50;;;7.18;;
20734;SDS011;10528;52.124;5.196;2023-06-19T06:56:12;12.23;;;8.50;;
20734;SDS011;10528;52.124;5.196;2023-06-19T06:58:39;9.43;;;6.82;;
20734;SDS011;10528;52.124;5.196;2023-06-19T07:01:06;11.75;;;8.40;;
20734;SDS011;10528;52.124;5.196;2023-06-19T07:03:33;11.27;;;8.82;;
20734;SDS011;10528;52.124;5.196;2023-06-19T07:06:01;9.60;;;8.32;;
20734;SDS011;10528;52.124;5.196;2023-06-19T07:08:29;10.27;;;8.48;;
20734;SDS011;10528;52.124;5.196;2023-06-19T07:10:56;12.05;;;9.68;;
20734;SDS011;10528;52.124;5.196;2023-06-19T07:13:22;10.20;;;8.27;;
20734;SDS011;10528;52.124;5.196;2023-06-19T07:15:50;10.50;;;9.05;;
20734;SDS011;10528;52.124;5.196;2023-06-19T07:18:16;12.43;;;8.70;;
20734;SDS011;10528;52.124;5.196;2023-06-19T07:20:43;11.02;;;8.63;;
20734;SDS011;10528;52.124;5.196;2023-06-19T07:23:10;12.23;;;9.57;;
20734;SDS011;10528;52.124;5.196;2023-06-19T07:25:37;12.20;;;8.85;;
20734;SDS011;10528;52.124;5.196;2023-06-19T07:28:04;12.98;;;9.00;;
20734;SDS011;10528;52.124;5.196;2023-06-19T07:30:31;11.82;;;8.48;;
20734;SDS011;10528;52.124;5.196;2023-06-19T07:32:58;10.23;;;7.78;;
20734;SDS011;10528;52.124;5.196;2023-06-19T07:35:25;12.57;;;9.40;;
20734;SDS011;10528;52.124;5.196;2023-06-19T07:37:52;11.93;;;8.40;;
20734;SDS011;10528;52.124;5.196;2023-06-19T07:40:19;12.32;;;9.77;;
20734;SDS011;10528;52.124;5.196;2023-06-19T07:42:46;11.25;;;8.40;;
20734;SDS011;10528;52.124;5.196;2023-06-19T07:45:13;10.50;;;9.38;;
20734;SDS011;10528;52.124;5.196;2023-06-19T07:47:40;14.38;;;9.32;;
20734;SDS011;10528;52.124;5.196;2023-06-19T07:50:07;13.77;;;9.13;;
20734;SDS011;10528;52.124;5.196;2023-06-19T07:52:34;11.68;;;9.55;;
20734;SDS011;10528;52.124;5.196;2023-06-19T07:55:01;12.88;;;9.68;;
20734;SDS011;10528;52.124;5.196;2023-06-19T07:57:28;15.10;;;11.93;;
20734;SDS011;10528;52.124;5.196;2023-06-19T07:59:55;17.02;;;11.60;;
20734;SDS011;10528;52.124;5.196;2023-06-19T08:02:22;13.63;;;11.50;;
20734;SDS011;10528;52.124;5.196;2023-06-19T08:04:49;14.00;;;11.88;;
20734;SDS011;10528;52.124;5.196;2023-06-19T08:07:16;13.32;;;10.13;;
20734;SDS011;10528;52.124;5.196;2023-06-19T08:09:43;16.52;;;11.85;;
20734;SDS011;10528;52.124;5.196;2023-06-19T08:12:13;13.80;;;11.02;;
20734;SDS011;10528;52.124;5.196;2023-06-19T08:14:40;12.73;;;10.65;;
20734;SDS011;10528;52.124;5.196;2023-06-19T08:17:07;13.50;;;11.23;;
20734;SDS011;10528;52.124;5.196;2023-06-19T08:19:34;14.32;;;10.90;;
20734;SDS011;10528;52.124;5.196;2023-06-19T08:22:01;17.98;;;12.63;;
20734;SDS011;10528;52.124;5.196;2023-06-19T08:24:28;14.25;;;11.70;;
20734;SDS011;10528;52.124;5.196;2023-06-19T08:26:55;16.48;;;13.52;;
20734;SDS011;10528;52.124;5.196;2023-06-19T08:29:22;17.98;;;13.27;;
20734;SDS011;10528;52.124;5.196;2023-06-19T08:31:49;15.05;;;11.80;;
20734;SDS011;10528;52.124;5.196;2023-06-19T08:34:16;15.50;;;12.55;;
20734;SDS011;10528;52.124;5.196;2023-06-19T08:36:43;18.38;;;13.13;;
20734;SDS011;10528;52.124;5.196;2023-06-19T08:39:10;16.02;;;12.98;;
20734;SDS011;10528;52.124;5.196;2023-06-19T08:41:37;17.05;;;12.70;;
20734;SDS011;10528;52.124;5.196;2023-06-19T08:44:05;13.68;;;11.38;;
20734;SDS011;10528;52.124;5.196;2023-06-19T08:46:32;14.77;;;12.27;;
20734;SDS011;10528;52.124;5.196;2023-06-19T08:49:01;15.82;;;12.38;;
20734;SDS011;10528;52.124;5.196;2023-06-19T08:51:28;16.40;;;13.43;;
20734;SDS011;10528;52.124;5.196;2023-06-19T08:54:05;18.05;;;15.30;;
20734;SDS011;10528;52.124;5.196;2023-06-19T08:56:37;18.23;;;13.40;;
20734;SDS011;10528;52.124;5.196;2023-06-19T08:59:07;17.10;;;13.43;;
20734;SDS011;10528;52.124;5.196;2023-06-19T09:01:37;16.27;;;12.02;;
20734;SDS011;10528;52.124;5.196;2023-06-19T09:04:13;15.27;;;12.45;;
20734;SDS011;10528;52.124;5.196;2023-06-19T09:06:56;15.88;;;12.48;;
20734;SDS011;10528;52.124;5.196;2023-06-19T09:09:27;17.85;;;14.32;;
20734;SDS011;10528;52.124;5.196;2023-06-19T09:12:01;18.95;;;13.40;;
20734;SDS011;10528;52.124;5.196;2023-06-19T09:14:37;17.73;;;15.07;;
20734;SDS011;10528;52.124;5.196;2023-06-19T09:17:09;18.13;;;13.95;;
20734;SDS011;10528;52.124;5.196;2023-06-19T09:19:48;18.77;;;13.93;;
20734;SDS011;10528;52.124;5.196;2023-06-19T09:22:17;18.38;;;14.48;;
20734;SDS011;10528;52.124;5.196;2023-06-19T09:24:47;19.88;;;14.90;;
20734;SDS011;10528;52.124;5.196;2023-06-19T09:27:19;19.25;;;15.18;;
20734;SDS011;10528;52.124;5.196;2023-06-19T09:29:49;17.70;;;14.98;;
20734;SDS011;10528;52.124;5.196;2023-06-19T09:34:50;17.45;;;14.45;;
20734;SDS011;10528;52.124;5.196;2023-06-19T09:37:23;17.52;;;14.52;;
20734;SDS011;10528;52.124;5.196;2023-06-19T09:39:57;16.98;;;14.15;;
20734;SDS011;10528;52.124;5.196;2023-06-19T09:42:30;18.05;;;14.10;;
20734;SDS011;10528;52.124;5.196;2023-06-19T09:45:06;19.63;;;14.70;;
20734;SDS011;10528;52.124;5.196;2023-06-19T09:47:42;17.38;;;14.85;;
20734;SDS011;10528;52.124;5.196;2023-06-19T09:50:17;18.15;;;14.57;;
20734;SDS011;10528;52.124;5.196;2023-06-19T09:52:47;16.80;;;13.50;;
20734;SDS011;10528;52.124;5.196;2023-06-19T09:55:18;16.60;;;13.95;;
20734;SDS011;10528;52.124;5.196;2023-06-19T09:57:45;19.73;;;14.40;;
20734;SDS011;10528;52.124;5.196;2023-06-19T10:00:14;14.73;;;13.05;;
20734;SDS011;10528;52.124;5.196;2023-06-19T10:02:48;16.98;;;12.85;;
20734;SDS011;10528;52.124;5.196;2023-06-19T10:05:16;17.90;;;13.20;;
20734;SDS011;10528;52.124;5.196;2023-06-19T10:07:45;17.58;;;14.15;;
20734;SDS011;10528;52.124;5.196;2023-06-19T10:10:23;16.70;;;14.85;;
20734;SDS011;10528;52.124;5.196;2023-06-19T10:12:53;18.50;;;15.32;;
20734;SDS011;10528;52.124;5.196;2023-06-19T10:15:23;15.48;;;13.13;;
20734;SDS011;10528;52.124;5.196;2023-06-19T10:17:58;20.83;;;15.60;;
20734;SDS011;10528;52.124;5.196;2023-06-19T10:25:33;19.00;;;15.32;;
20734;SDS011;10528;52.124;5.196;2023-06-19T10:28:03;16.75;;;14.95;;
20734;SDS011;10528;52.124;5.196;2023-06-19T10:30:34;19.38;;;15.73;;
20734;SDS011;10528;52.124;5.196;2023-06-19T10:33:01;17.40;;;14.82;;
20734;SDS011;10528;52.124;5.196;2023-06-19T10:35:36;15.90;;;13.55;;
20734;SDS011;10528;52.124;5.196;2023-06-19T10:38:08;16.77;;;14.05;;
20734;SDS011;10528;52.124;5.196;2023-06-19T10:40:37;16.30;;;14.60;;
20734;SDS011;10528;52.124;5.196;2023-06-19T10:43:04;17.60;;;14.95;;
20734;SDS011;10528;52.124;5.196;2023-06-19T10:45:31;15.25;;;13.45;;
20734;SDS011;10528;52.124;5.196;2023-06-19T10:48:00;16.80;;;13.77;;
20734;SDS011;10528;52.124;5.196;2023-06-19T10:50:30;16.65;;;13.13;;
20734;SDS011;10528;52.124;5.196;2023-06-19T10:53:04;16.45;;;14.63;;
20734;SDS011;10528;52.124;5.196;2023-06-19T10:55:31;20.40;;;16.15;;
20734;SDS011;10528;52.124;5.196;2023-06-19T10:58:01;17.88;;;14.85;;
20734;SDS011;10528;52.124;5.196;2023-06-19T11:00:29;17.13;;;14.45;;
20734;SDS011;10528;52.124;5.196;2023-06-19T11:02:59;17.33;;;13.30;;
20734;SDS011;10528;52.124;5.196;2023-06-19T11:05:26;14.75;;;12.70;;
20734;SDS011;10528;52.124;5.196;2023-06-19T11:07:55;14.95;;;12.43;;
20734;SDS011;10528;52.124;5.196;2023-06-19T11:10:26;12.70;;;11.30;;
20734;SDS011;10528;52.124;5.196;2023-06-19T11:12:56;14.65;;;12.63;;
20734;SDS011;10528;52.124;5.196;2023-06-19T11:15:28;14.65;;;12.68;;
20734;SDS011;10528;52.124;5.196;2023-06-19T11:17:56;16.52;;;13.20;;
20734;SDS011;10528;52.124;5.196;2023-06-19T11:20:25;14.23;;;11.10;;
20734;SDS011;10528;52.124;5.196;2023-06-19T11:22:55;15.25;;;12.50;;
20734;SDS011;10528;52.124;5.196;2023-06-19T11:25:37;15.48;;;12.07;;
20734;SDS011;10528;52.124;5.196;2023-06-19T11:28:10;12.93;;;11.23;;
20734;SDS011;10528;52.124;5.196;2023-06-19T11:30:41;13.18;;;10.85;;
20734;SDS011;10528;52.124;5.196;2023-06-19T11:33:16;14.95;;;11.73;;
20734;SDS011;10528;52.124;5.196;2023-06-19T11:35:48;16.08;;;11.45;;
20734;SDS011;10528;52.124;5.196;2023-06-19T11:38:25;13.77;;;12.15;;
20734;SDS011;10528;52.124;5.196;2023-06-19T11:40:56;15.52;;;12.88;;
20734;SDS011;10528;52.124;5.196;2023-06-19T11:43:32;14.77;;;10.88;;
20734;SDS011;10528;52.124;5.196;2023-06-19T11:46:02;13.27;;;10.85;;
20734;SDS011;10528;52.124;5.196;2023-06-19T11:48:31;15.32;;;11.27;;
20734;SDS011;10528;52.124;5.196;2023-06-19T11:50:59;14.18;;;11.23;;
20734;SDS011;10528;52.124;5.196;2023-06-19T11:53:26;14.57;;;11.70;;
20734;SDS011;10528;52.124;5.196;2023-06-19T11:55:53;11.93;;;10.35;;
20734;SDS011;10528;52.124;5.196;2023-06-19T11:58:20;10.57;;;9.48;;
20734;SDS011;10528;52.124;5.196;2023-06-19T12:00:47;11.15;;;9.95;;
20734;SDS011;10528;52.124;5.196;2023-06-19T12:03:15;13.48;;;10.23;;
20734;SDS011;10528;52.124;5.196;2023-06-19T12:05:43;13.70;;;11.18;;
20734;SDS011;10528;52.124;5.196;2023-06-19T12:08:10;17.27;;;10.18;;
20734;SDS011;10528;52.124;5.196;2023-06-19T12:10:37;14.18;;;9.88;;
20734;SDS011;10528;52.124;5.196;2023-06-19T12:13:04;11.23;;;10.05;;
20734;SDS011;10528;52.124;5.196;2023-06-19T12:15:31;12.52;;;9.38;;
20734;SDS011;10528;52.124;5.196;2023-06-19T12:18:00;12.80;;;9.73;;
20734;SDS011;10528;52.124;5.196;2023-06-19T12:20:27;11.77;;;10.40;;
20734;SDS011;10528;52.124;5.196;2023-06-19T12:22:54;11.35;;;9.88;;
20734;SDS011;10528;52.124;5.196;2023-06-19T12:25:21;14.45;;;10.48;;
20734;SDS011;10528;52.124;5.196;2023-06-19T12:27:48;12.13;;;10.68;;
20734;SDS011;10528;52.124;5.196;2023-06-19T12:30:20;11.52;;;10.23;;
20734;SDS011;10528;52.124;5.196;2023-06-19T12:32:48;13.30;;;10.52;;
20734;SDS011;10528;52.124;5.196;2023-06-19T12:35:16;12.70;;;10.65;;
20734;SDS011;10528;52.124;5.196;2023-06-19T12:37:42;10.43;;;9.32;;
20734;SDS011;10528;52.124;5.196;2023-06-19T12:40:09;11.90;;;9.38;;
20734;SDS011;10528;52.124;5.196;2023-06-19T12:42:37;13.10;;;8.98;;
20734;SDS011;10528;52.124;5.196;2023-06-19T12:45:04;13.20;;;9.88;;
20734;SDS011;10528;52.124;5.196;2023-06-19T12:47:31;10.95;;;9.43;;
20734;SDS011;10528;52.124;5.196;2023-06-19T12:49:58;10.77;;;9.40;;
20734;SDS011;10528;52.124;5.196;2023-06-19T12:52:25;11.63;;;9.63;;
20734;SDS011;10528;52.124;5.196;2023-06-19T12:54:53;12.82;;;9.15;;
20734;SDS011;10528;52.124;5.196;2023-06-19T12:57:20;11.07;;;8.93;;
20734;SDS011;10528;52.124;5.196;2023-06-19T12:59:46;10.13;;;8.77;;
20734;SDS011;10528;52.124;5.196;2023-06-19T13:02:13;9.50;;;8.15;;
20734;SDS011;10528;52.124;5.196;2023-06-19T13:04:41;10.73;;;9.23;;
20734;SDS011;10528;52.124;5.196;2023-06-19T13:07:08;9.30;;;8.40;;
20734;SDS011;10528;52.124;5.196;2023-06-19T13:09:35;10.38;;;8.68;;
20734;SDS011;10528;52.124;5.196;2023-06-19T13:12:02;10.25;;;8.48;;
20734;SDS011;10528;52.124;5.196;2023-06-19T13:14:29;10.63;;;8.70;;
20734;SDS011;10528;52.124;5.196;2023-06-19T13:16:58;10.98;;;8.98;;
20734;SDS011;10528;52.124;5.196;2023-06-19T13:19:26;11.63;;;8.20;;
20734;SDS011;10528;52.124;5.196;2023-06-19T13:21:53;9.63;;;8.63;;
20734;SDS011;10528;52.124;5.196;2023-06-19T13:24:20;11.00;;;9.68;;
20734;SDS011;10528;52.124;5.196;2023-06-19T13:26:47;13.73;;;10.50;;
20734;SDS011;10528;52.124;5.196;2023-06-19T13:29:14;11.95;;;10.73;;
20734;SDS011;10528;52.124;5.196;2023-06-19T13:31:41;13.07;;;9.65;;
20734;SDS011;10528;52.124;5.196;2023-06-19T13:34:08;10.52;;;9.38;;
20734;SDS011;10528;52.124;5.196;2023-06-19T13:36:35;10.95;;;9.13;;
20734;SDS011;10528;52.124;5.196;2023-06-19T13:39:02;12.02;;;9.65;;
20734;SDS011;10528;52.124;5.196;2023-06-19T13:41:30;11.40;;;9.13;;
20734;SDS011;10528;52.124;5.196;2023-06-19T13:43:59;12.23;;;10.02;;
20734;SDS011;10528;52.124;5.196;2023-06-19T13:46:26;11.88;;;9.15;;
20734;SDS011;10528;52.124;5.196;2023-06-19T13:48:53;11.60;;;9.15;;
20734;SDS011;10528;52.124;5.196;2023-06-19T13:51:21;11.30;;;8.82;;
20734;SDS011;10528;52.124;5.196;2023-06-19T13:53:49;12.40;;;9.70;;
20734;SDS011;10528;52.124;5.196;2023-06-19T13:56:17;13.80;;;9.32;;
20734;SDS011;10528;52.124;5.196;2023-06-19T13:58:44;11.60;;;9.85;;
20734;SDS011;10528;52.124;5.196;2023-06-19T14:01:12;13.63;;;9.48;;
20734;SDS011;10528;52.124;5.196;2023-06-19T14:03:39;12.27;;;9.95;;
20734;SDS011;10528;52.124;5.196;2023-06-19T14:06:06;11.45;;;9.55;;
20734;SDS011;10528;52.124;5.196;2023-06-19T14:08:33;12.57;;;11.00;;
20734;SDS011;10528;52.124;5.196;2023-06-19T14:11:00;14.05;;;10.43;;
20734;SDS011;10528;52.124;5.196;2023-06-19T14:13:27;16.45;;;10.27;;
20734;SDS011;10528;52.124;5.196;2023-06-19T14:15:54;11.07;;;9.57;;
20734;SDS011;10528;52.124;5.196;2023-06-19T14:18:21;13.25;;;11.10;;
20734;SDS011;10528;52.124;5.196;2023-06-19T14:20:48;10.45;;;9.45;;
20734;SDS011;10528;52.124;5.196;2023-06-19T14:23:15;11.30;;;10.20;;
20734;SDS011;10528;52.124;5.196;2023-06-19T14:25:42;10.77;;;8.98;;
20734;SDS011;10528;52.124;5.196;2023-06-19T14:28:10;11.10;;;8.85;;
20734;SDS011;10528;52.124;5.196;2023-06-19T14:30:37;9.02;;;7.78;;
20734;SDS011;10528;52.124;5.196;2023-06-19T14:33:05;9.48;;;7.63;;
20734;SDS011;10528;52.124;5.196;2023-06-19T14:35:36;9.05;;;7.55;;
20734;SDS011;10528;52.124;5.196;2023-06-19T14:38:03;11.27;;;8.25;;
20734;SDS011;10528;52.124;5.196;2023-06-19T14:40:30;9.70;;;8.38;;
20734;SDS011;10528;52.124;5.196;2023-06-19T14:42:57;11.15;;;9.05;;
20734;SDS011;10528;52.124;5.196;2023-06-19T14:45:24;10.43;;;9.32;;
20734;SDS011;10528;52.124;5.196;2023-06-19T14:47:50;11.77;;;9.38;;
20734;SDS011;10528;52.124;5.196;2023-06-19T14:50:18;12.48;;;9.05;;
20734;SDS011;10528;52.124;5.196;2023-06-19T14:52:45;9.65;;;7.95;;
20734;SDS011;10528;52.124;5.196;2023-06-19T14:55:11;10.38;;;8.00;;